PHZTM EHRD-EHTE
Flight info
| Callsign | PHZTM |
|---|---|
| Flight time | 0h 24m |
| Altitude | 11000 |
| Route | DCT |
| Aircraft | AEST/L-DFGLORVY/S |
Departure
| Time | 2026-05-08 05:47 |
|---|---|
| Airport | Rotterdam The Hague Airport (EHRD) |
Arrival
| Time | 2026-05-08 06:11 |
|---|---|
| Airport | Teuge Airport (EHTE) |
| Time | Latitude | Longitude | Altitude | Speed | Heading |
|---|---|---|---|---|---|
| 2026-05-08 05:38 | 51.94937 | 4.42644 | -4 ft | 0 kts | 327° |
| 2026-05-08 05:42 | 51.94950 | 4.42649 | -4 ft | 7 kts | 66° |
| 2026-05-08 05:43 | 51.94962 | 4.42714 | -4 ft | 8 kts | 18° |
| 2026-05-08 05:43 | 51.95002 | 4.42767 | -4 ft | 8 kts | 56° |
| 2026-05-08 05:43 | 51.95034 | 4.42850 | -4 ft | 3 kts | 58° |
| 2026-05-08 05:43 | 51.95035 | 4.42851 | -4 ft | 0 kts | 58° |
| 2026-05-08 05:44 | 51.95037 | 4.42857 | -4 ft | 2 kts | 58° |
| 2026-05-08 05:44 | 51.95055 | 4.42902 | -4 ft | 6 kts | 57° |
| 2026-05-08 05:45 | 51.95082 | 4.42971 | -4 ft | 9 kts | 57° |
| 2026-05-08 05:45 | 51.95093 | 4.42998 | -4 ft | 0 kts | 56° |
| 2026-05-08 05:45 | 51.95094 | 4.42999 | -4 ft | 1 kts | 56° |
| 2026-05-08 05:45 | 51.95101 | 4.43008 | -4 ft | 2 kts | 11° |
| 2026-05-08 05:46 | 51.95114 | 4.42985 | -4 ft | 6 kts | 280° |
| 2026-05-08 05:46 | 51.95141 | 4.42918 | -4 ft | 9 kts | 326° |
| 2026-05-08 05:46 | 51.95202 | 4.42860 | -3 ft | 11 kts | 340° |
| 2026-05-08 05:46 | 51.95351 | 4.43186 | -4 ft | 79 kts | 55° |
| 2026-05-08 05:47 | 51.95750 | 4.44190 | 43 ft | 121 kts | 55° |
| 2026-05-08 05:47 | 51.96262 | 4.45450 | 341 ft | 147 kts | 56° |
| 2026-05-08 05:47 | 51.96798 | 4.46970 | 684 ft | 163 kts | 69° |
| 2026-05-08 05:47 | 51.97003 | 4.48862 | 986 ft | 182 kts | 96° |
| 2026-05-08 05:48 | 51.96560 | 4.50774 | 1210 ft | 183 kts | 131° |
| 2026-05-08 05:48 | 51.95604 | 4.52080 | 1276 ft | 180 kts | 160° |
| 2026-05-08 05:48 | 51.94476 | 4.52600 | 1415 ft | 161 kts | 181° |
| 2026-05-08 05:48 | 51.93378 | 4.52710 | 1375 ft | 157 kts | 183° |
| 2026-05-08 05:49 | 51.92328 | 4.52796 | 1469 ft | 145 kts | 181° |
| 2026-05-08 05:49 | 51.91352 | 4.53094 | 1565 ft | 142 kts | 174° |
| 2026-05-08 05:49 | 51.90388 | 4.53559 | 1567 ft | 148 kts | 168° |
| 2026-05-08 05:49 | 51.89754 | 4.53995 | 1569 ft | 151 kts | 165° |
| 2026-05-08 05:50 | 51.88791 | 4.54722 | 1557 ft | 154 kts | 163° |
| 2026-05-08 05:50 | 51.87859 | 4.55594 | 1539 ft | 156 kts | 153° |
| 2026-05-08 05:50 | 51.86993 | 4.56679 | 1560 ft | 159 kts | 152° |
| 2026-05-08 05:50 | 51.86134 | 4.57821 | 1555 ft | 160 kts | 148° |
| 2026-05-08 05:51 | 51.85288 | 4.59011 | 1553 ft | 162 kts | 148° |
| 2026-05-08 05:51 | 51.84430 | 4.60223 | 1544 ft | 164 kts | 148° |
| 2026-05-08 05:51 | 51.83574 | 4.61441 | 1539 ft | 164 kts | 146° |
| 2026-05-08 05:51 | 51.82886 | 4.62928 | 1546 ft | 168 kts | 130° |
| 2026-05-08 05:52 | 51.82398 | 4.64666 | 1555 ft | 172 kts | 120° |
| 2026-05-08 05:52 | 51.81944 | 4.66480 | 1549 ft | 175 kts | 119° |
| 2026-05-08 05:52 | 51.81510 | 4.68328 | 1538 ft | 176 kts | 111° |
| 2026-05-08 05:52 | 51.81318 | 4.70294 | 1554 ft | 179 kts | 104° |
| 2026-05-08 05:53 | 51.81163 | 4.72276 | 1550 ft | 180 kts | 103° |
| 2026-05-08 05:53 | 51.80996 | 4.74287 | 1556 ft | 181 kts | 103° |
| 2026-05-08 05:53 | 51.80969 | 4.76320 | 1554 ft | 182 kts | 92° |
| 2026-05-08 05:53 | 51.81043 | 4.78381 | 1559 ft | 185 kts | 91° |
| 2026-05-08 05:54 | 51.81137 | 4.80493 | 1557 ft | 195 kts | 89° |
| 2026-05-08 05:54 | 51.81258 | 4.82767 | 1549 ft | 209 kts | 89° |
| 2026-05-08 05:54 | 51.81374 | 4.85154 | 1540 ft | 216 kts | 89° |
| 2026-05-08 05:54 | 51.81484 | 4.87596 | 1550 ft | 220 kts | 89° |
| 2026-05-08 05:55 | 51.81589 | 4.90080 | 1559 ft | 222 kts | 89° |
| 2026-05-08 05:55 | 51.81704 | 4.92584 | 1552 ft | 225 kts | 89° |
| 2026-05-08 05:55 | 51.81825 | 4.95126 | 1543 ft | 228 kts | 89° |
| 2026-05-08 05:55 | 51.81948 | 4.97679 | 1553 ft | 227 kts | 89° |
| 2026-05-08 05:56 | 51.82058 | 5.00233 | 1553 ft | 228 kts | 89° |
| 2026-05-08 05:56 | 51.82162 | 5.02778 | 1553 ft | 227 kts | 89° |
| 2026-05-08 05:56 | 51.82268 | 5.05325 | 1551 ft | 227 kts | 89° |
| 2026-05-08 05:56 | 51.82457 | 5.07862 | 1531 ft | 229 kts | 76° |
| 2026-05-08 05:57 | 51.83102 | 5.10218 | 1551 ft | 230 kts | 64° |
| 2026-05-08 05:57 | 51.83836 | 5.12510 | 1547 ft | 230 kts | 63° |
| 2026-05-08 05:57 | 51.84587 | 5.14802 | 1548 ft | 231 kts | 63° |
| 2026-05-08 05:57 | 51.85344 | 5.17095 | 1559 ft | 231 kts | 63° |
| 2026-05-08 05:58 | 51.86104 | 5.19401 | 1550 ft | 232 kts | 62° |
| 2026-05-08 05:58 | 51.86861 | 5.21703 | 1548 ft | 232 kts | 62° |
| 2026-05-08 05:58 | 51.87608 | 5.23977 | 1553 ft | 232 kts | 62° |
| 2026-05-08 05:58 | 51.88372 | 5.26282 | 1551 ft | 233 kts | 62° |
| 2026-05-08 05:59 | 51.89131 | 5.28596 | 1551 ft | 232 kts | 62° |
| 2026-05-08 05:59 | 51.89896 | 5.30906 | 1551 ft | 233 kts | 63° |
| 2026-05-08 05:59 | 51.90667 | 5.33210 | 1551 ft | 233 kts | 63° |
| 2026-05-08 05:59 | 51.91431 | 5.35520 | 1552 ft | 233 kts | 62° |
| 2026-05-08 06:00 | 51.92199 | 5.37844 | 1549 ft | 234 kts | 62° |
| 2026-05-08 06:00 | 51.92972 | 5.40153 | 1550 ft | 233 kts | 62° |
| 2026-05-08 06:00 | 51.93741 | 5.42458 | 1550 ft | 232 kts | 62° |
| 2026-05-08 06:00 | 51.94501 | 5.44768 | 1549 ft | 232 kts | 62° |
| 2026-05-08 06:01 | 51.95265 | 5.47077 | 1550 ft | 233 kts | 62° |
| 2026-05-08 06:01 | 51.96032 | 5.49395 | 1549 ft | 233 kts | 63° |
| 2026-05-08 06:01 | 51.96799 | 5.51708 | 1549 ft | 232 kts | 62° |
| 2026-05-08 06:01 | 51.97739 | 5.53798 | 1553 ft | 229 kts | 41° |
| 2026-05-08 06:02 | 51.99015 | 5.55356 | 1553 ft | 231 kts | 33° |
| 2026-05-08 06:02 | 52.00325 | 5.56864 | 1541 ft | 230 kts | 33° |
| 2026-05-08 06:02 | 52.01630 | 5.58359 | 1545 ft | 230 kts | 33° |
| 2026-05-08 06:02 | 52.02925 | 5.59831 | 1551 ft | 231 kts | 32° |
| 2026-05-08 06:03 | 52.04254 | 5.61358 | 1553 ft | 231 kts | 32° |
| 2026-05-08 06:03 | 52.05565 | 5.62870 | 1549 ft | 231 kts | 32° |
| 2026-05-08 06:03 | 52.06839 | 5.64396 | 1528 ft | 232 kts | 41° |
| 2026-05-08 06:03 | 52.07896 | 5.66363 | 1554 ft | 232 kts | 50° |
| 2026-05-08 06:04 | 52.08904 | 5.68399 | 1551 ft | 232 kts | 50° |
| 2026-05-08 06:04 | 52.09923 | 5.70468 | 1552 ft | 233 kts | 50° |
| 2026-05-08 06:04 | 52.10935 | 5.72516 | 1551 ft | 232 kts | 50° |
| 2026-05-08 06:04 | 52.11942 | 5.74572 | 1546 ft | 233 kts | 51° |
| 2026-05-08 06:05 | 52.12954 | 5.76632 | 1551 ft | 233 kts | 51° |
| 2026-05-08 06:05 | 52.13965 | 5.78688 | 1549 ft | 229 kts | 51° |
| 2026-05-08 06:05 | 52.14932 | 5.80648 | 1539 ft | 216 kts | 51° |
| 2026-05-08 06:05 | 52.15850 | 5.82527 | 1548 ft | 208 kts | 51° |
| 2026-05-08 06:06 | 52.16737 | 5.84355 | 1551 ft | 204 kts | 51° |
| 2026-05-08 06:06 | 52.17613 | 5.86193 | 1461 ft | 207 kts | 51° |
| 2026-05-08 06:06 | 52.18491 | 5.88070 | 1315 ft | 208 kts | 59° |
| 2026-05-08 06:06 | 52.18697 | 5.90320 | 1096 ft | 204 kts | 107° |
| 2026-05-08 06:07 | 52.18072 | 5.92349 | 965 ft | 190 kts | 126° |
| 2026-05-08 06:07 | 52.17431 | 5.94157 | 1010 ft | 182 kts | 123° |
| 2026-05-08 06:07 | 52.16977 | 5.96009 | 936 ft | 162 kts | 106° |
| 2026-05-08 06:07 | 52.17045 | 5.97633 | 920 ft | 139 kts | 75° |
| 2026-05-08 06:08 | 52.17391 | 5.99091 | 860 ft | 137 kts | 69° |
| 2026-05-08 06:08 | 52.17780 | 6.00472 | 844 ft | 131 kts | 66° |
| 2026-05-08 06:08 | 52.18183 | 6.01775 | 844 ft | 126 kts | 62° |
| 2026-05-08 06:08 | 52.18588 | 6.03008 | 909 ft | 122 kts | 60° |
| 2026-05-08 06:09 | 52.19058 | 6.04196 | 873 ft | 127 kts | 53° |
| 2026-05-08 06:09 | 52.19797 | 6.04567 | 858 ft | 118 kts | 335° |
| 2026-05-08 06:09 | 52.20562 | 6.04037 | 723 ft | 116 kts | 329° |
| 2026-05-08 06:09 | 52.21313 | 6.03543 | 687 ft | 114 kts | 333° |
| 2026-05-08 06:10 | 52.22051 | 6.03076 | 684 ft | 115 kts | 331° |
| 2026-05-08 06:10 | 52.22797 | 6.02543 | 591 ft | 119 kts | 329° |
| 2026-05-08 06:10 | 52.23548 | 6.01990 | 460 ft | 113 kts | 339° |
| 2026-05-08 06:10 | 52.24219 | 6.02362 | 363 ft | 108 kts | 53° |
| 2026-05-08 06:11 | 52.24265 | 6.03572 | 151 ft | 112 kts | 101° |
| 2026-05-08 06:11 | 52.24274 | 6.04769 | 17 ft | 81 kts | 86° |
| 2026-05-08 06:11 | 52.24296 | 6.05324 | 22 ft | 20 kts | 86° |
| 2026-05-08 06:11 | 52.24308 | 6.05544 | 22 ft | 20 kts | 85° |
| 2026-05-08 06:12 | 52.24320 | 6.05769 | 22 ft | 20 kts | 85° |
| 2026-05-08 06:12 | 52.24256 | 6.05875 | 20 ft | 18 kts | 204° |
| 2026-05-08 06:12 | 52.24223 | 6.05718 | 20 ft | 14 kts | 265° |
| 2026-05-08 06:12 | 52.24215 | 6.05577 | 20 ft | 11 kts | 265° |
| 2026-05-08 06:13 | 52.24206 | 6.05466 | 20 ft | 9 kts | 220° |
| 2026-05-08 06:13 | 52.24174 | 6.05501 | 20 ft | 4 kts | 158° |
| 2026-05-08 06:13 | 52.24173 | 6.05501 | 20 ft | 0 kts | 166° |